createdAt,value
2023-02-18T00:01:17.983Z,30.67
2023-02-18T00:04:22.785Z,33.08
2023-02-18T00:07:27.180Z,38.30
2023-02-18T00:10:31.724Z,33.88
2023-02-18T00:13:36.926Z,55.53
2023-02-18T00:16:42.304Z,24.13
2023-02-18T00:19:46.903Z,34.30
2023-02-18T00:22:51.276Z,53.45
2023-02-18T00:26:13.146Z,28.70
2023-02-18T00:29:19.436Z,49.95
2023-02-18T00:32:25.264Z,27.25
2023-02-18T00:35:29.769Z,29.42
2023-02-18T00:38:34.423Z,28.55
2023-02-18T00:41:39.079Z,35.17
2023-02-18T00:44:43.803Z,38.20
2023-02-18T00:47:48.197Z,31.25
2023-02-18T00:50:52.723Z,27.88
2023-02-18T00:53:59.292Z,28.92
2023-02-18T00:57:03.730Z,26.77
2023-02-18T01:00:09.253Z,38.83
2023-02-18T01:03:13.703Z,40.30
2023-02-18T01:06:18.367Z,41.55
2023-02-18T01:09:25.675Z,32.22
2023-02-18T01:12:29.770Z,27.05
2023-02-18T01:15:34.617Z,22.63
2023-02-18T01:18:40.969Z,32.33
2023-02-18T01:21:45.087Z,35.00
2023-02-18T01:24:49.540Z,27.20
2023-02-18T01:27:53.869Z,28.17
2023-02-18T01:31:03.821Z,23.88
2023-02-18T01:34:09.107Z,27.42
2023-02-18T01:37:13.567Z,36.63
2023-02-18T01:40:26.306Z,24.27
2023-02-18T01:43:31.253Z,36.65
2023-02-18T01:46:35.795Z,24.13
2023-02-18T01:49:41.246Z,27.55
2023-02-18T01:52:46.487Z,24.48
2023-02-18T01:55:51.188Z,30.45
2023-02-18T01:58:59.082Z,29.73
2023-02-18T02:02:04.613Z,23.58
2023-02-18T02:05:09.047Z,24.08
2023-02-18T02:08:15.172Z,39.17
2023-02-18T02:11:46.453Z,29.92
2023-02-18T02:15:04.738Z,34.70
2023-02-18T02:18:20.858Z,38.60
2023-02-18T02:22:14.839Z,30.58
2023-02-18T02:25:50.760Z,36.75
2023-02-18T02:29:23.219Z,30.77
2023-02-18T02:32:42.695Z,29.00
2023-02-18T02:35:57.151Z,31.80
2023-02-18T02:39:19.602Z,33.53
2023-02-18T02:42:47.847Z,33.75
2023-02-18T02:46:11.418Z,28.35
2023-02-18T02:49:21.808Z,32.85
2023-02-18T02:52:32.017Z,21.80
2023-02-18T02:55:36.652Z,26.58
2023-02-18T02:58:41.234Z,31.63
2023-02-18T03:02:04.306Z,32.05
2023-02-18T03:05:24.646Z,25.90
2023-02-18T03:08:33.461Z,33.67
2023-02-18T03:12:01.247Z,36.15
2023-02-18T03:15:12.633Z,30.23
2023-02-18T03:18:41.206Z,34.65
2023-02-18T03:21:52.173Z,29.58
2023-02-18T03:24:58.444Z,30.15
2023-02-18T03:28:08.554Z,21.20
2023-02-18T03:31:21.381Z,23.52
2023-02-18T03:34:30.029Z,22.25
2023-02-18T03:37:39.528Z,28.10
2023-02-18T03:40:43.986Z,34.65
2023-02-18T03:44:00.426Z,27.67
2023-02-18T03:47:06.133Z,34.78
2023-02-18T03:50:10.539Z,18.83
2023-02-18T03:53:15.075Z,27.17
2023-02-18T03:56:21.803Z,31.17
2023-02-18T03:59:26.245Z,26.42
2023-02-18T04:02:30.703Z,30.90
2023-02-18T04:05:36.053Z,46.70
2023-02-18T04:08:40.544Z,23.08
2023-02-18T04:11:45.133Z,26.27
2023-02-18T04:14:49.387Z,28.70
2023-02-18T04:17:56.762Z,39.72
2023-02-18T04:21:01.243Z,24.50
2023-02-18T04:24:06.011Z,33.73
2023-02-18T04:27:10.542Z,41.55
2023-02-18T04:30:16.780Z,35.17
2023-02-18T04:33:23.233Z,35.47
2023-02-18T04:36:27.759Z,28.63
2023-02-18T04:39:31.977Z,34.00
2023-02-18T04:42:37.179Z,21.13
2023-02-18T04:45:41.625Z,41.15
2023-02-18T04:48:46.271Z,21.58
2023-02-18T04:51:50.587Z,37.15
2023-02-18T04:54:55.177Z,30.13
2023-02-18T04:57:59.712Z,28.60
2023-02-18T05:01:04.653Z,30.77
2023-02-18T05:07:14.146Z,33.30
2023-02-18T05:10:18.826Z,33.90
2023-02-18T05:13:23.197Z,31.05
2023-02-18T05:16:27.775Z,35.85
2023-02-18T05:19:32.421Z,20.48
2023-02-18T05:22:36.926Z,33.17
2023-02-18T05:25:41.124Z,19.88
2023-02-18T05:28:45.369Z,22.90
2023-02-18T05:31:50.026Z,33.05
2023-02-18T05:34:54.380Z,31.45
2023-02-18T05:37:58.943Z,35.80
2023-02-18T05:41:03.564Z,30.38
2023-02-18T05:44:26.808Z,42.20
2023-02-18T05:47:31.121Z,20.15
2023-02-18T05:50:36.080Z,21.52
2023-02-18T05:53:41.207Z,28.48
2023-02-18T05:56:46.001Z,40.33
2023-02-18T05:59:50.503Z,23.20
2023-02-18T06:02:54.923Z,17.95
2023-02-18T06:05:59.417Z,29.30
2023-02-18T06:09:05.268Z,30.23
2023-02-18T06:12:09.508Z,22.85
2023-02-18T06:15:14.059Z,21.67
2023-02-18T06:18:18.704Z,27.70
2023-02-18T06:21:22.865Z,26.23
2023-02-18T06:24:27.328Z,34.42
2023-02-18T06:27:31.932Z,27.27
2023-02-18T06:30:36.455Z,25.92
2023-02-18T06:33:40.751Z,25.67
2023-02-18T06:36:45.305Z,28.13
2023-02-18T06:39:49.815Z,37.08
2023-02-18T06:42:54.196Z,27.88
2023-02-18T06:45:58.797Z,43.47
2023-02-18T06:49:03.664Z,36.75
2023-02-18T06:52:08.100Z,40.90
2023-02-18T06:55:12.977Z,33.97
2023-02-18T06:58:17.875Z,27.10
2023-02-18T07:01:22.641Z,39.03
2023-02-18T07:04:27.180Z,29.20
2023-02-18T07:07:31.559Z,23.83
2023-02-18T07:10:35.856Z,32.83
2023-02-18T07:13:40.533Z,40.35
2023-02-18T07:16:45.053Z,30.60
2023-02-18T07:19:49.692Z,32.20
2023-02-18T07:22:54.682Z,31.60
2023-02-18T07:26:07.824Z,27.65
2023-02-18T07:29:12.646Z,18.38
2023-02-18T07:32:19.638Z,31.05
2023-02-18T07:35:24.565Z,36.72
2023-02-18T07:38:29.386Z,39.45
2023-02-18T07:41:33.498Z,37.47
2023-02-18T07:44:38.976Z,36.70
2023-02-18T07:47:45.533Z,32.53
2023-02-18T07:50:49.954Z,32.60
2023-02-18T07:53:55.313Z,30.53
2023-02-18T07:56:59.770Z,34.83
2023-02-18T08:00:04.609Z,27.98
2023-02-18T08:03:19.150Z,36.67
2023-02-18T08:06:33.107Z,30.23
2023-02-18T08:09:37.663Z,36.63
2023-02-18T08:12:41.936Z,27.00
2023-02-18T08:15:46.714Z,46.03
2023-02-18T08:18:52.216Z,37.83
2023-02-18T08:21:56.840Z,33.15
2023-02-18T08:25:01.438Z,44.85
2023-02-18T08:28:06.479Z,35.15
2023-02-18T08:34:21.113Z,29.85
2023-02-18T08:37:25.671Z,32.03
2023-02-18T08:40:30.233Z,26.10
2023-02-18T08:43:35.401Z,31.58
2023-02-18T08:46:39.573Z,22.75
2023-02-18T08:49:44.608Z,30.42
2023-02-18T08:52:49.059Z,27.15
2023-02-18T08:55:53.532Z,22.65
2023-02-18T08:58:58.601Z,30.40
2023-02-18T09:02:02.856Z,17.77
2023-02-18T09:05:08.009Z,35.42
2023-02-18T09:08:12.652Z,24.33
2023-02-18T09:11:18.068Z,20.20
2023-02-18T09:14:22.720Z,27.38
2023-02-18T09:17:27.573Z,24.57
2023-02-18T09:20:31.946Z,29.15
2023-02-18T09:23:37.104Z,20.85
2023-02-18T09:26:41.553Z,14.40
2023-02-18T09:29:46.069Z,21.20
2023-02-18T09:32:50.601Z,23.38
2023-02-18T09:35:55.008Z,21.75
2023-02-18T09:38:59.894Z,15.45
2023-02-18T09:42:07.313Z,21.38
2023-02-18T09:45:12.866Z,24.85
2023-02-18T09:48:17.165Z,30.30
2023-02-18T09:51:21.816Z,25.65
2023-02-18T09:54:27.405Z,15.32
2023-02-18T09:57:43.335Z,19.63
2023-02-18T10:01:03.552Z,20.98
2023-02-18T10:04:33.056Z,26.75
2023-02-18T10:07:38.519Z,16.35
2023-02-18T10:10:45.801Z,17.88
2023-02-18T10:13:52.742Z,18.70
2023-02-18T10:16:58.392Z,20.30
2023-02-18T10:20:07.807Z,21.33
2023-02-18T10:23:15.482Z,15.77
2023-02-18T10:26:20.587Z,39.05
2023-02-18T10:29:25.834Z,36.67
2023-02-18T10:32:38.032Z,17.05
2023-02-18T10:36:04.628Z,30.20
2023-02-18T10:39:20.995Z,20.77
2023-02-18T10:42:37.577Z,28.60
2023-02-18T10:45:47.814Z,33.95
2023-02-18T10:49:07.158Z,19.08
2023-02-18T10:52:16.868Z,28.55
2023-02-18T10:55:41.716Z,21.85
2023-02-18T10:58:47.374Z,27.08
2023-02-18T11:01:57.531Z,27.45
2023-02-18T11:05:16.289Z,25.25
2023-02-18T11:08:26.835Z,26.30
2023-02-18T11:11:38.107Z,27.80
2023-02-18T11:14:48.440Z,26.17
2023-02-18T11:17:55.701Z,24.05
2023-02-18T11:21:03.906Z,28.23
2023-02-18T11:24:16.812Z,24.35
2023-02-18T11:27:48.771Z,28.65
2023-02-18T11:31:01.533Z,24.15
2023-02-18T11:34:06.882Z,26.90
2023-02-18T11:40:32.770Z,30.65
2023-02-18T11:43:40.841Z,28.13
2023-02-18T11:47:01.525Z,23.25
2023-02-18T11:50:09.046Z,25.45
2023-02-18T11:53:30.831Z,21.92
2023-02-18T11:56:36.382Z,28.85
2023-02-18T11:59:42.389Z,18.15
2023-02-18T12:02:47.925Z,17.33
2023-02-18T12:05:52.504Z,23.70
2023-02-18T12:09:20.704Z,17.77
2023-02-18T12:12:32.282Z,20.48
2023-02-18T12:15:50.146Z,20.60
2023-02-18T12:19:13.880Z,23.45
2023-02-18T12:22:44.796Z,23.02
2023-02-18T12:26:06.111Z,18.08
2023-02-18T12:29:39.217Z,14.15
2023-02-18T12:33:11.668Z,15.82
2023-02-18T12:36:16.313Z,14.95
2023-02-18T12:39:57.367Z,17.55
2023-02-18T12:43:14.010Z,11.32
2023-02-18T12:46:41.276Z,15.20
2023-02-18T12:50:23.407Z,15.10
2023-02-18T12:53:33.473Z,16.48
2023-02-18T12:56:50.581Z,13.48
2023-02-18T13:00:31.109Z,11.48
2023-02-18T13:04:14.851Z,16.60
2023-02-18T13:07:29.101Z,18.15
2023-02-18T13:10:47.920Z,19.02
2023-02-18T13:14:10.288Z,17.27
2023-02-18T13:17:17.979Z,18.30
2023-02-18T13:20:27.507Z,17.42
2023-02-18T13:23:40.108Z,21.27
2023-02-18T13:26:49.056Z,17.20
2023-02-18T13:30:19.297Z,21.58
2023-02-18T13:33:55.179Z,12.00
2023-02-18T13:37:33.553Z,13.77
2023-02-18T13:40:39.459Z,9.80
2023-02-18T13:43:46.082Z,9.43
2023-02-18T13:46:56.488Z,13.35
2023-02-18T13:50:27.173Z,7.38
2023-02-18T13:53:39.208Z,11.52
2023-02-18T13:56:59.561Z,9.02
2023-02-18T14:00:15.345Z,13.57
2023-02-18T14:03:42.808Z,11.75
2023-02-18T14:07:25.284Z,13.70
2023-02-18T14:10:34.596Z,10.10
2023-02-18T14:13:45.118Z,15.68
2023-02-18T14:17:18.884Z,6.78
2023-02-18T14:20:32.574Z,21.33
2023-02-18T14:23:38.350Z,17.90
2023-02-18T14:26:49.749Z,14.27
2023-02-18T14:29:54.388Z,12.98
2023-02-18T14:33:02.151Z,11.57
2023-02-18T14:36:15.900Z,12.50
2023-02-18T14:39:51.556Z,8.13
2023-02-18T14:43:09.719Z,9.18
2023-02-18T14:46:47.745Z,7.68
2023-02-18T14:49:55.661Z,13.77
2023-02-18T14:53:05.468Z,10.05
2023-02-18T14:56:13.225Z,8.18
2023-02-18T14:59:18.671Z,11.52
2023-02-18T15:02:27.754Z,12.85
2023-02-18T15:05:32.876Z,15.15
2023-02-18T15:08:39.207Z,15.18
2023-02-18T15:11:51.103Z,10.57
2023-02-18T15:15:02.476Z,9.45
2023-02-18T15:18:20.601Z,16.08
2023-02-18T15:21:43.250Z,11.98
2023-02-18T15:24:49.673Z,15.05
2023-02-18T15:27:55.027Z,15.68
2023-02-18T15:31:01.965Z,8.52
2023-02-18T15:34:24.849Z,15.73
2023-02-18T15:37:30.749Z,14.55
2023-02-18T15:40:38.138Z,13.10
2023-02-18T15:43:53.812Z,16.25
2023-02-18T15:47:07.619Z,8.43
2023-02-18T15:50:22.342Z,12.88
2023-02-18T15:53:26.497Z,13.07
2023-02-18T15:56:35.885Z,14.60
2023-02-18T15:59:54.810Z,10.82
2023-02-18T16:03:09.895Z,16.23
2023-02-18T16:06:27.702Z,14.82
2023-02-18T16:09:34.100Z,11.98
2023-02-18T16:12:39.836Z,13.05
2023-02-18T16:15:46.604Z,10.07
2023-02-18T16:18:50.707Z,17.63
2023-02-18T16:21:54.983Z,12.98
2023-02-18T16:25:10.597Z,13.23
2023-02-18T16:28:27.656Z,12.10
2023-02-18T16:31:31.937Z,13.98
2023-02-18T16:34:36.430Z,15.70
2023-02-18T16:37:42.472Z,18.83
2023-02-18T16:40:47.185Z,18.63
2023-02-18T16:46:58.093Z,12.40
2023-02-18T16:50:02.671Z,7.05
2023-02-18T16:53:06.959Z,7.90
2023-02-18T16:56:17.156Z,16.20
2023-02-18T16:59:21.683Z,9.98
2023-02-18T17:02:26.816Z,9.50
2023-02-18T17:05:39.322Z,17.15
2023-02-18T17:08:44.051Z,14.35
2023-02-18T17:11:51.437Z,10.25
2023-02-18T17:14:55.991Z,13.30
2023-02-18T17:18:01.627Z,12.00
2023-02-18T17:21:06.295Z,12.68
2023-02-18T17:24:15.013Z,16.97
2023-02-18T17:27:19.330Z,10.70
2023-02-18T17:30:23.984Z,11.70
2023-02-18T17:33:28.336Z,9.43
2023-02-18T17:36:32.995Z,15.80
2023-02-18T17:42:42.760Z,10.00
2023-02-18T17:45:54.178Z,17.33
2023-02-18T17:48:59.031Z,11.32
2023-02-18T17:52:05.373Z,15.57
2023-02-18T17:55:31.537Z,9.45
2023-02-18T18:01:41.031Z,11.18
2023-02-18T18:04:45.516Z,6.13
2023-02-18T18:07:51.764Z,13.70
2023-02-18T18:11:00.066Z,11.35
2023-02-18T18:14:05.139Z,9.63
2023-02-18T18:17:12.259Z,10.52
2023-02-18T18:20:16.739Z,26.80
2023-02-18T18:23:22.479Z,7.05
2023-02-18T18:26:27.852Z,12.65
2023-02-18T18:29:32.542Z,18.02
2023-02-18T18:32:36.771Z,18.67
2023-02-18T18:35:41.992Z,11.15
2023-02-18T18:38:47.113Z,12.07
2023-02-18T18:41:51.772Z,12.70
2023-02-18T18:44:56.317Z,15.25
2023-02-18T18:48:01.293Z,22.45
2023-02-18T18:51:06.132Z,12.02
2023-02-18T18:54:12.026Z,12.40
2023-02-18T18:57:16.365Z,8.40
2023-02-18T19:00:26.061Z,13.20
2023-02-18T19:03:31.475Z,14.65
2023-02-18T19:06:36.417Z,10.65
2023-02-18T19:09:40.648Z,18.47
2023-02-18T19:12:45.406Z,18.63
2023-02-18T19:15:51.403Z,17.50
2023-02-18T19:18:55.853Z,9.25
2023-02-18T19:22:00.252Z,10.07
2023-02-18T19:25:05.260Z,17.38
2023-02-18T19:28:13.676Z,8.48
2023-02-18T19:31:23.926Z,14.95
2023-02-18T19:34:28.536Z,12.82
2023-02-18T19:37:35.126Z,22.35
2023-02-18T19:40:39.842Z,18.10
2023-02-18T19:43:46.482Z,11.60
2023-02-18T19:46:53.195Z,7.63
2023-02-18T19:49:59.439Z,11.73
2023-02-18T19:53:03.816Z,12.98
2023-02-18T19:56:08.550Z,17.55
2023-02-18T19:59:13.236Z,28.23
2023-02-18T20:02:23.708Z,14.05
2023-02-18T20:05:28.125Z,13.75
2023-02-18T20:08:36.844Z,15.73
2023-02-18T20:11:41.508Z,12.85
2023-02-18T20:14:46.865Z,4.95
2023-02-18T20:20:55.824Z,22.65
2023-02-18T20:24:00.131Z,18.60
2023-02-18T20:27:04.893Z,13.65
2023-02-18T20:30:10.305Z,14.87
2023-02-18T20:33:15.006Z,15.13
2023-02-18T20:36:19.405Z,17.17
2023-02-18T20:39:23.894Z,10.00
2023-02-18T20:42:28.403Z,21.00
2023-02-18T20:45:32.741Z,11.83
2023-02-18T20:48:37.435Z,11.10
2023-02-18T20:51:42.449Z,12.52
2023-02-18T20:54:46.945Z,12.65
2023-02-18T20:57:51.573Z,13.43
2023-02-18T21:01:01.846Z,13.63
2023-02-18T21:04:06.070Z,11.15
2023-02-18T21:07:11.191Z,16.33
2023-02-18T21:10:16.041Z,14.40
2023-02-18T21:13:21.107Z,19.23
2023-02-18T21:19:31.100Z,6.68
2023-02-18T21:22:35.238Z,14.87
2023-02-18T21:25:39.822Z,18.70
2023-02-18T21:28:48.744Z,22.35
2023-02-18T21:31:53.190Z,10.27
2023-02-18T21:34:57.689Z,15.80
2023-02-18T21:38:02.167Z,10.65
2023-02-18T21:41:07.163Z,13.82
2023-02-18T21:44:11.857Z,17.35
2023-02-18T21:47:16.545Z,13.55
2023-02-18T21:50:21.194Z,14.52
2023-02-18T21:53:25.583Z,12.03
2023-02-18T21:56:29.671Z,15.27
2023-02-18T21:59:35.359Z,10.18
2023-02-18T22:02:39.728Z,10.52
2023-02-18T22:05:44.373Z,15.38
2023-02-18T22:08:48.610Z,13.77
2023-02-18T22:11:52.934Z,11.47
2023-02-18T22:14:57.222Z,7.73
2023-02-18T22:18:01.580Z,12.23
2023-02-18T22:21:09.680Z,8.68
2023-02-18T22:24:16.226Z,20.23
2023-02-18T22:27:20.827Z,17.20
2023-02-18T22:30:25.312Z,15.48
2023-02-18T22:33:29.572Z,15.83
2023-02-18T22:36:34.153Z,25.27
2023-02-18T22:39:38.806Z,12.82
2023-02-18T22:42:43.402Z,15.85
2023-02-18T22:45:47.998Z,9.18
2023-02-18T22:48:54.507Z,15.13
2023-02-18T22:51:58.991Z,21.98
2023-02-18T22:55:03.628Z,16.48
2023-02-18T22:58:08.024Z,26.70
2023-02-18T23:01:24.009Z,12.70
2023-02-18T23:04:28.568Z,23.95
2023-02-18T23:07:33.080Z,17.73
2023-02-18T23:10:37.312Z,6.65
2023-02-18T23:13:42.535Z,21.60
2023-02-18T23:17:10.156Z,6.28
2023-02-18T23:20:14.620Z,11.10
2023-02-18T23:23:18.969Z,26.05
2023-02-18T23:26:25.556Z,28.20
2023-02-18T23:29:29.869Z,24.85
2023-02-18T23:32:34.360Z,16.48
2023-02-18T23:35:40.144Z,10.13
2023-02-18T23:38:51.489Z,11.82
2023-02-18T23:41:56.178Z,11.40
2023-02-18T23:45:00.526Z,11.98
2023-02-18T23:48:04.849Z,12.95
2023-02-18T23:51:12.393Z,18.90
2023-02-18T23:54:18.553Z,12.95
2023-02-18T23:57:22.951Z,12.35
